EBOS

Ostend-Bruges International Airport

Ostend, Belgium
METAR EBOS 132350Z 07007KT 7000 NSC M01/M03 Q1021 TEMPO 4000 BR
Observed Flight Rules
Dec-13 @ 23:50 UTC (55 minutes ago) Marginal Visual Flight Rules
Wind Visibility Clouds
70° at 7 knots 7,001 meters
  • Clear skies
Temperatures Readings
Current -1°C / 30°F
Dewpoint -3°C / 27°F
Humidity 86%
Altimeter 30.15" Hg
Pressure 1021 hPa
Elevation 5
METAR EBOS 132350Z 07007KT 7000 NSC M01/M03 Q1021 TEMPO 4000 BR
Observed Flight Rules
Dec-13 @ 23:50 UTC
(55 minutes ago)
MVFR
Wind Visibility
70° at 7 knots 7,001 meters
Clouds
  • Clear skies
Temperature Dewpoint
-1°C / 30°F -3°C / 27°F
Humidity Altimeter Pressure
86% 30.15" Hg 1021 hPa